Detall de PIREP

Printer-friendly versionPDF version

[2010/06/24 20:36:00]
Flight IATA:CT2207
Pilot Number:026
Company ICAO:CAT
Aircraft Type:DC85/A
PAX:136
Departing Airport: LFSD
Destination Airport: LFMP
Alternate Airport:LFBO
Online: VATSIM
Route:CACHI/N0280F190 G21 MOU A27 CFA/N0350F290 UY27 SIJAN
Flight Level:FL290
No Slew and time accel
No pause
Crash detect
Detect pilot in Cockpit between each 30 and 45 minutes
20:36 Zero fuel Weight: 184027 Lbs, Fuel Weight: 23531 Lbs
20:36 VATSIM:LFSD 242000Z AUTO 36004KT 9999NDV NSC 21/12 Q1017
20:36 VATSIM:LFMP 242000Z AUTO VRB02KT 9999NDV NSC 23/13 Q1015
20:36 VOICE CATALONIAN / LFMP HUB
20:49 Parking Brakes off
21:00 Take-off
21:00 Take off Weight: 205865 Lbs
21:00 Wind: 347º @ 003 Knots Heading: 354º
21:00 POS N47º 16´ 24´´ E005º 05´ 38´´
21:00 Gear Up: 182 Knots
21:00 Flaps:2 at 183 Knots
21:00 Flaps:1 at 223 Knots
21:02 Flaps:0 at 200 Knots
21:15 Wind:016º@007 Kn
ots Heading: 194º Ground Speed: 430 Knots Altitude 19114 ft
21:27 TOC
21:27 Fuel Weight: 14308 Lb
21:30 Wind:032º@004 Knots Heading: 176º Ground Speed: 440 Knots Altitude 29140 ft
21:36 TOD
21:36 Fuel Weight: 12457 Lb
21:45 Wind:254º@005 Knots Heading: 188º Ground Speed: 339 Knots Altitude 14124 ft
21:54 Flaps:1 at 227 Knots
21:55 Flaps:2 at 155 Knots
21:55 Gear Down: 153 Knots
21:56 Flaps:3 at 145 Knots
21:57 Flaps:4 at 163 Knots
21:57 Flaps:5 at 153 Knots
21:58 TouchDown:Rate -379 ft/min Speed: 134 Knots
21:59 VATSIM:LFMP 242130Z AUTO 25006KT 9999NDV NSC 20/13 Q1015
21:59 Land
21:59 Wind:219º@005 Knots
21:59 Heading: 330º
21:59 Flight Duration: 00:59
21:59 Landing Weight: 194442 Lbs
21:59 POS N42º 45´ 01´´ E002º 51´ 53´´
22:05 Parking brakes on
22:05 Block to Block Duration: 01:16
22:05 Final Fuel: 9830 Lbls
22:05 Spent Fuel: 13701 Lbls
22:05 Flig
ht Length: 355 NM
22:05 TOD Land Length: 109 NM

Exportar CSV

Powered by Drupal - Modified by Danger4k